PNE weather

Northeast Philadelphia Airport
Philadelphia, Pennsylvania, United States

Public forecast

Using degrees Fahrenheit for public forecast. Weather courtesy of forecast.io.

Current aviation weather report (METAR) for Northeast Philadelphia Airport

Retrieved 2019/11/19 01:12 UTC (14 minutes ago):

KPNE 190112Z 32003KT 10SM OVC017 07/03 A2975 RMK AO2 T00670033

Aviation forecast (TAF) for Northeast Philadelphia Airport

Retrieved 2019-11-19 00:27 UTC (59 minutes ago):

TAF KPNE 182325Z 1900/1924 35004KT P6SM BKN010 OVC025 FM190300 31004KT P6SM SCT010 BKN040 FM190800 27003KT 6SM BR BKN020 TEMPO 1910/1912 3SM BR FM191400 27005KT P6SM SCT040 FM191800 27008KT P6SM FEW040 BKN120